sensor_id;sensor_type;location;lat;lon;timestamp;temperature;humidity
13472;DHT22;6808;49.444;11.034;2022-10-04T00:04:22;8.40;99.90
13472;DHT22;6808;49.444;11.034;2022-10-04T00:09:24;8.30;99.90
13472;DHT22;6808;49.444;11.034;2022-10-04T00:11:53;8.20;99.90
13472;DHT22;6808;49.444;11.034;2022-10-04T00:14:28;8.20;99.90
13472;DHT22;6808;49.444;11.034;2022-10-04T00:16:56;8.20;99.90
13472;DHT22;6808;49.444;11.034;2022-10-04T00:19:41;8.20;99.90
13472;DHT22;6808;49.444;11.034;2022-10-04T00:22:10;8.20;99.90
13472;DHT22;6808;49.444;11.034;2022-10-04T00:24:37;8.20;99.90
13472;DHT22;6808;49.444;11.034;2022-10-04T00:27:25;8.10;99.90
13472;DHT22;6808;49.444;11.034;2022-10-04T00:32:29;8.10;99.90
13472;DHT22;6808;49.444;11.034;2022-10-04T00:34:56;8.10;99.90
13472;DHT22;6808;49.444;11.034;2022-10-04T00:37:24;8.00;99.90
13472;DHT22;6808;49.444;11.034;2022-10-04T00:40:16;7.90;99.90
13472;DHT22;6808;49.444;11.034;2022-10-04T00:42:49;7.80;99.90
13472;DHT22;6808;49.444;11.034;2022-10-04T00:46:06;7.80;99.90
13472;DHT22;6808;49.444;11.034;2022-10-04T00:48:28;7.80;99.90
13472;DHT22;6808;49.444;11.034;2022-10-04T00:53:55;7.80;99.90
13472;DHT22;6808;49.444;11.034;2022-10-04T00:56:27;7.80;99.90
13472;DHT22;6808;49.444;11.034;2022-10-04T01:01:26;7.80;99.90
13472;DHT22;6808;49.444;11.034;2022-10-04T01:03:55;7.80;99.90
13472;DHT22;6808;49.444;11.034;2022-10-04T01:06:22;7.80;99.90
13472;DHT22;6808;49.444;11.034;2022-10-04T01:09:02;7.70;99.90
13472;DHT22;6808;49.444;11.034;2022-10-04T01:11:33;7.80;99.90
13472;DHT22;6808;49.444;11.034;2022-10-04T01:14:15;7.70;99.90
13472;DHT22;6808;49.444;11.034;2022-10-04T01:16:43;7.70;99.90
13472;DHT22;6808;49.444;11.034;2022-10-04T01:22:13;7.70;99.90
13472;DHT22;6808;49.444;11.034;2022-10-04T01:24:42;7.70;99.90
13472;DHT22;6808;49.444;11.034;2022-10-04T01:27:40;7.60;99.90
13472;DHT22;6808;49.444;11.034;2022-10-04T01:30:10;7.70;99.90
13472;DHT22;6808;49.444;11.034;2022-10-04T01:32:38;7.70;99.90
13472;DHT22;6808;49.444;11.034;2022-10-04T01:35:08;7.60;99.90
13472;DHT22;6808;49.444;11.034;2022-10-04T01:37:34;7.70;99.90
13472;DHT22;6808;49.444;11.034;2022-10-04T01:40:01;7.60;99.90
13472;DHT22;6808;49.444;11.034;2022-10-04T01:42:32;7.60;99.90
13472;DHT22;6808;49.444;11.034;2022-10-04T01:47:54;7.60;99.90
13472;DHT22;6808;49.444;11.034;2022-10-04T01:50:31;7.60;99.90
13472;DHT22;6808;49.444;11.034;2022-10-04T01:53:19;7.50;99.90
13472;DHT22;6808;49.444;11.034;2022-10-04T01:55:50;7.40;99.90
13472;DHT22;6808;49.444;11.034;2022-10-04T01:58:31;7.40;99.90
13472;DHT22;6808;49.444;11.034;2022-10-04T02:01:08;7.40;99.90
13472;DHT22;6808;49.444;11.034;2022-10-04T02:03:44;7.30;99.90
13472;DHT22;6808;49.444;11.034;2022-10-04T02:06:14;7.30;99.90
13472;DHT22;6808;49.444;11.034;2022-10-04T02:08:48;7.30;99.90
13472;DHT22;6808;49.444;11.034;2022-10-04T02:11:19;7.30;99.90
13472;DHT22;6808;49.444;11.034;2022-10-04T02:13:50;7.30;99.90
13472;DHT22;6808;49.444;11.034;2022-10-04T02:16:17;7.30;99.90
13472;DHT22;6808;49.444;11.034;2022-10-04T02:18:44;7.20;99.90
13472;DHT22;6808;49.444;11.034;2022-10-04T02:21:11;7.30;99.90
13472;DHT22;6808;49.444;11.034;2022-10-04T02:23:38;7.30;99.90
13472;DHT22;6808;49.444;11.034;2022-10-04T02:26:06;7.20;99.90
13472;DHT22;6808;49.444;11.034;2022-10-04T02:28:33;7.20;99.90
13472;DHT22;6808;49.444;11.034;2022-10-04T02:30:59;7.20;99.90
13472;DHT22;6808;49.444;11.034;2022-10-04T02:33:46;7.10;99.90
13472;DHT22;6808;49.444;11.034;2022-10-04T02:36:13;7.10;99.90
13472;DHT22;6808;49.444;11.034;2022-10-04T02:41:30;7.10;99.90
13472;DHT22;6808;49.444;11.034;2022-10-04T02:49:36;7.00;99.90
13472;DHT22;6808;49.444;11.034;2022-10-04T02:52:06;7.00;99.90
13472;DHT22;6808;49.444;11.034;2022-10-04T02:54:47;7.00;99.90
13472;DHT22;6808;49.444;11.034;2022-10-04T02:57:15;7.00;99.90
13472;DHT22;6808;49.444;11.034;2022-10-04T02:59:42;6.90;99.90
13472;DHT22;6808;49.444;11.034;2022-10-04T03:02:28;6.90;99.90
13472;DHT22;6808;49.444;11.034;2022-10-04T03:04:58;7.00;99.90
13472;DHT22;6808;49.444;11.034;2022-10-04T03:07:25;6.90;99.90
13472;DHT22;6808;49.444;11.034;2022-10-04T03:09:51;6.90;99.90
13472;DHT22;6808;49.444;11.034;2022-10-04T03:12:17;6.80;99.90
13472;DHT22;6808;49.444;11.034;2022-10-04T03:14:44;6.80;99.90
13472;DHT22;6808;49.444;11.034;2022-10-04T03:17:10;6.70;99.90
13472;DHT22;6808;49.444;11.034;2022-10-04T03:19:38;6.70;99.90
13472;DHT22;6808;49.444;11.034;2022-10-04T03:22:09;6.60;99.90
13472;DHT22;6808;49.444;11.034;2022-10-04T03:24:48;6.60;99.90
13472;DHT22;6808;49.444;11.034;2022-10-04T03:27:22;6.60;99.90
13472;DHT22;6808;49.444;11.034;2022-10-04T03:29:50;6.70;99.90
13472;DHT22;6808;49.444;11.034;2022-10-04T03:32:18;6.60;99.90
13472;DHT22;6808;49.444;11.034;2022-10-04T03:35:05;6.40;99.90
13472;DHT22;6808;49.444;11.034;2022-10-04T03:37:35;6.50;99.90
13472;DHT22;6808;49.444;11.034;2022-10-04T03:40:03;6.50;99.90
13472;DHT22;6808;49.444;11.034;2022-10-04T03:42:34;6.60;99.90
13472;DHT22;6808;49.444;11.034;2022-10-04T03:45:03;6.60;99.90
13472;DHT22;6808;49.444;11.034;2022-10-04T03:47:37;6.60;99.90
13472;DHT22;6808;49.444;11.034;2022-10-04T03:50:25;6.60;99.90
13472;DHT22;6808;49.444;11.034;2022-10-04T03:52:56;6.40;99.90
13472;DHT22;6808;49.444;11.034;2022-10-04T03:55:32;6.40;99.90
13472;DHT22;6808;49.444;11.034;2022-10-04T03:57:58;6.40;99.90
13472;DHT22;6808;49.444;11.034;2022-10-04T04:00:25;6.30;99.90
13472;DHT22;6808;49.444;11.034;2022-10-04T04:03:02;6.30;99.90
13472;DHT22;6808;49.444;11.034;2022-10-04T04:05:57;6.30;99.90
13472;DHT22;6808;49.444;11.034;2022-10-04T04:08:37;6.20;99.90
13472;DHT22;6808;49.444;11.034;2022-10-04T04:11:06;6.20;99.90
13472;DHT22;6808;49.444;11.034;2022-10-04T04:13:51;6.10;99.90
13472;DHT22;6808;49.444;11.034;2022-10-04T04:16:22;6.10;99.90
13472;DHT22;6808;49.444;11.034;2022-10-04T04:18:51;5.90;99.90
13472;DHT22;6808;49.444;11.034;2022-10-04T04:21:18;5.80;99.90
13472;DHT22;6808;49.444;11.034;2022-10-04T04:23:52;5.90;99.90
13472;DHT22;6808;49.444;11.034;2022-10-04T04:26:28;6.00;99.90
13472;DHT22;6808;49.444;11.034;2022-10-04T04:29:10;6.10;99.90
13472;DHT22;6808;49.444;11.034;2022-10-04T04:34:24;6.20;99.90
13472;DHT22;6808;49.444;11.034;2022-10-04T04:36:59;6.20;99.90
13472;DHT22;6808;49.444;11.034;2022-10-04T04:39:27;6.30;99.90
13472;DHT22;6808;49.444;11.034;2022-10-04T04:42:05;6.30;99.90
13472;DHT22;6808;49.444;11.034;2022-10-04T04:44:39;6.40;99.90
13472;DHT22;6808;49.444;11.034;2022-10-04T04:47:36;6.40;99.90
13472;DHT22;6808;49.444;11.034;2022-10-04T04:50:14;6.50;99.90
13472;DHT22;6808;49.444;11.034;2022-10-04T04:52:42;6.50;99.90
13472;DHT22;6808;49.444;11.034;2022-10-04T04:55:19;6.50;99.90
13472;DHT22;6808;49.444;11.034;2022-10-04T04:57:47;6.50;99.90
13472;DHT22;6808;49.444;11.034;2022-10-04T05:00:22;6.50;99.90
13472;DHT22;6808;49.444;11.034;2022-10-04T05:03:01;6.50;99.90
13472;DHT22;6808;49.444;11.034;2022-10-04T05:05:33;6.50;99.90
13472;DHT22;6808;49.444;11.034;2022-10-04T05:08:25;6.50;99.90
13472;DHT22;6808;49.444;11.034;2022-10-04T05:18:40;6.40;99.90
13472;DHT22;6808;49.444;11.034;2022-10-04T05:21:22;6.20;99.90
13472;DHT22;6808;49.444;11.034;2022-10-04T05:23:49;6.20;99.90
13472;DHT22;6808;49.444;11.034;2022-10-04T05:26:23;6.20;99.90
13472;DHT22;6808;49.444;11.034;2022-10-04T05:28:50;6.20;99.90
13472;DHT22;6808;49.444;11.034;2022-10-04T05:33:59;6.30;99.90
13472;DHT22;6808;49.444;11.034;2022-10-04T05:36:46;6.30;99.90
13472;DHT22;6808;49.444;11.034;2022-10-04T05:39:26;6.40;99.90
13472;DHT22;6808;49.444;11.034;2022-10-04T05:44:51;6.30;99.90
13472;DHT22;6808;49.444;11.034;2022-10-04T05:47:20;6.30;99.90
13472;DHT22;6808;49.444;11.034;2022-10-04T05:49:51;6.10;99.90
13472;DHT22;6808;49.444;11.034;2022-10-04T05:52:34;6.10;99.90
13472;DHT22;6808;49.444;11.034;2022-10-04T05:55:33;6.20;99.90
13472;DHT22;6808;49.444;11.034;2022-10-04T06:06:53;6.20;99.90
13472;DHT22;6808;49.444;11.034;2022-10-04T06:14:35;6.30;99.90
13472;DHT22;6808;49.444;11.034;2022-10-04T06:17:23;6.30;99.90
13472;DHT22;6808;49.444;11.034;2022-10-04T06:22:28;6.40;99.90
13472;DHT22;6808;49.444;11.034;2022-10-04T06:25:06;6.40;99.90
13472;DHT22;6808;49.444;11.034;2022-10-04T06:34:21;6.50;99.90
13472;DHT22;6808;49.444;11.034;2022-10-04T06:39:58;6.70;99.90
13472;DHT22;6808;49.444;11.034;2022-10-04T06:42:19;6.70;99.90
13472;DHT22;6808;49.444;11.034;2022-10-04T06:50:24;6.70;99.90
13472;DHT22;6808;49.444;11.034;2022-10-04T06:58:44;6.80;99.90
13472;DHT22;6808;49.444;11.034;2022-10-04T07:01:32;6.80;99.90
13472;DHT22;6808;49.444;11.034;2022-10-04T07:06:48;6.90;99.90
13472;DHT22;6808;49.444;11.034;2022-10-04T07:09:25;7.00;99.90
13472;DHT22;6808;49.444;11.034;2022-10-04T07:11:58;7.00;99.90
13472;DHT22;6808;49.444;11.034;2022-10-04T07:14:35;7.10;99.90
13472;DHT22;6808;49.444;11.034;2022-10-04T07:17:12;7.10;99.90
13472;DHT22;6808;49.444;11.034;2022-10-04T07:19:59;7.30;99.90
13472;DHT22;6808;49.444;11.034;2022-10-04T07:22:33;7.30;99.90
13472;DHT22;6808;49.444;11.034;2022-10-04T07:25:21;7.40;99.90
13472;DHT22;6808;49.444;11.034;2022-10-04T07:28:04;7.50;99.90
13472;DHT22;6808;49.444;11.034;2022-10-04T07:31:03;7.60;99.90
13472;DHT22;6808;49.444;11.034;2022-10-04T07:33:43;7.70;99.90
13472;DHT22;6808;49.444;11.034;2022-10-04T07:36:12;7.80;99.90
13472;DHT22;6808;49.444;11.034;2022-10-04T07:38:54;7.80;99.90
13472;DHT22;6808;49.444;11.034;2022-10-04T07:44:35;7.90;99.90
13472;DHT22;6808;49.444;11.034;2022-10-04T07:47:21;8.00;99.90
13472;DHT22;6808;49.444;11.034;2022-10-04T07:49:48;8.00;99.90
13472;DHT22;6808;49.444;11.034;2022-10-04T07:52:34;8.10;99.90
13472;DHT22;6808;49.444;11.034;2022-10-04T08:01:56;8.30;99.90
13472;DHT22;6808;49.444;11.034;2022-10-04T08:06:37;8.50;99.90
13472;DHT22;6808;49.444;11.034;2022-10-04T08:09:15;8.60;99.90
13472;DHT22;6808;49.444;11.034;2022-10-04T08:17:59;9.00;99.90
13472;DHT22;6808;49.444;11.034;2022-10-04T08:23:39;9.00;99.90
13472;DHT22;6808;49.444;11.034;2022-10-04T08:29:29;9.10;99.90
13472;DHT22;6808;49.444;11.034;2022-10-04T08:32:28;9.20;99.90
13472;DHT22;6808;49.444;11.034;2022-10-04T08:35:22;9.30;99.90
13472;DHT22;6808;49.444;11.034;2022-10-04T08:38:06;9.40;99.90
13472;DHT22;6808;49.444;11.034;2022-10-04T08:54:35;9.80;99.90
13472;DHT22;6808;49.444;11.034;2022-10-04T09:02:54;10.20;99.90
13472;DHT22;6808;49.444;11.034;2022-10-04T09:15:04;10.60;99.90
13472;DHT22;6808;49.444;11.034;2022-10-04T09:26:07;10.80;99.90
13472;DHT22;6808;49.444;11.034;2022-10-04T09:42:07;11.30;99.90
13472;DHT22;6808;49.444;11.034;2022-10-04T09:47:44;11.40;99.90
13472;DHT22;6808;49.444;11.034;2022-10-04T09:50:26;11.50;99.90
13472;DHT22;6808;49.444;11.034;2022-10-04T09:53:34;11.60;99.90
13472;DHT22;6808;49.444;11.034;2022-10-04T10:02:03;11.90;99.90
13472;DHT22;6808;49.444;11.034;2022-10-04T10:07:31;12.10;99.90
13472;DHT22;6808;49.444;11.034;2022-10-04T10:13:13;12.40;99.90
13472;DHT22;6808;49.444;11.034;2022-10-04T10:16:24;12.40;99.90
13472;DHT22;6808;49.444;11.034;2022-10-04T10:30:39;13.00;99.90
13472;DHT22;6808;49.444;11.034;2022-10-04T10:45:11;13.50;99.90
13472;DHT22;6808;49.444;11.034;2022-10-04T10:47:53;13.60;99.90
13472;DHT22;6808;49.444;11.034;2022-10-04T10:56:27;14.00;99.90
13472;DHT22;6808;49.444;11.034;2022-10-04T11:04:48;14.10;99.90
13472;DHT22;6808;49.444;11.034;2022-10-04T11:07:45;14.10;99.90
13472;DHT22;6808;49.444;11.034;2022-10-04T11:13:17;14.30;99.90
13472;DHT22;6808;49.444;11.034;2022-10-04T11:46:27;15.10;96.00
13472;DHT22;6808;49.444;11.034;2022-10-04T11:57:54;15.40;96.20
13472;DHT22;6808;49.444;11.034;2022-10-04T12:00:25;15.50;97.40
13472;DHT22;6808;49.444;11.034;2022-10-04T12:03:19;15.50;97.60
13472;DHT22;6808;49.444;11.034;2022-10-04T12:15:05;15.70;95.70
13472;DHT22;6808;49.444;11.034;2022-10-04T12:23:47;15.80;97.10
13472;DHT22;6808;49.444;11.034;2022-10-04T12:32:15;15.90;99.90
13472;DHT22;6808;49.444;11.034;2022-10-04T12:38:03;16.10;96.60
13472;DHT22;6808;49.444;11.034;2022-10-04T12:43:29;16.20;96.30
13472;DHT22;6808;49.444;11.034;2022-10-04T12:46:23;16.20;98.40
13472;DHT22;6808;49.444;11.034;2022-10-04T12:54:38;16.70;98.40
13472;DHT22;6808;49.444;11.034;2022-10-04T13:00:14;16.70;95.50
13472;DHT22;6808;49.444;11.034;2022-10-04T13:02:52;16.80;97.70
13472;DHT22;6808;49.444;11.034;2022-10-04T13:16:59;16.80;95.60
13472;DHT22;6808;49.444;11.034;2022-10-04T13:19:33;16.90;99.20
13472;DHT22;6808;49.444;11.034;2022-10-04T13:22:09;16.90;95.70
13472;DHT22;6808;49.444;11.034;2022-10-04T13:33:17;17.20;97.10
13472;DHT22;6808;49.444;11.034;2022-10-04T13:35:53;17.20;95.00
13472;DHT22;6808;49.444;11.034;2022-10-04T13:38:27;16.90;95.00
13472;DHT22;6808;49.444;11.034;2022-10-04T13:52:38;16.70;96.60
13472;DHT22;6808;49.444;11.034;2022-10-04T13:55:52;16.80;97.00
13472;DHT22;6808;49.444;11.034;2022-10-04T14:07:41;16.70;94.90
13472;DHT22;6808;49.444;11.034;2022-10-04T14:39:16;16.30;93.70
13472;DHT22;6808;49.444;11.034;2022-10-04T14:44:58;16.10;93.00
13472;DHT22;6808;49.444;11.034;2022-10-04T14:47:34;16.10;93.60
13472;DHT22;6808;49.444;11.034;2022-10-04T14:50:16;16.00;93.10
13472;DHT22;6808;49.444;11.034;2022-10-04T14:52:57;16.00;93.50
13472;DHT22;6808;49.444;11.034;2022-10-04T15:01:32;16.00;92.80
13472;DHT22;6808;49.444;11.034;2022-10-04T15:04:21;16.00;93.80
13472;DHT22;6808;49.444;11.034;2022-10-04T15:06:59;16.00;96.40
13472;DHT22;6808;49.444;11.034;2022-10-04T15:09:54;15.90;95.30
13472;DHT22;6808;49.444;11.034;2022-10-04T15:25:43;15.80;95.20
13472;DHT22;6808;49.444;11.034;2022-10-04T15:53:43;15.50;95.80
13472;DHT22;6808;49.444;11.034;2022-10-04T15:56:34;15.50;97.20
13472;DHT22;6808;49.444;11.034;2022-10-04T16:07:40;15.30;96.60
13472;DHT22;6808;49.444;11.034;2022-10-04T16:10:29;15.30;95.90
13472;DHT22;6808;49.444;11.034;2022-10-04T16:15:41;15.20;96.70
13472;DHT22;6808;49.444;11.034;2022-10-04T16:32:17;14.90;96.50
13472;DHT22;6808;49.444;11.034;2022-10-04T16:34:59;14.90;96.50
13472;DHT22;6808;49.444;11.034;2022-10-04T16:42:40;14.70;99.50
13472;DHT22;6808;49.444;11.034;2022-10-04T16:47:56;14.60;98.20
13472;DHT22;6808;49.444;11.034;2022-10-04T16:50:51;14.50;97.70
13472;DHT22;6808;49.444;11.034;2022-10-04T16:56:09;14.50;98.90
13472;DHT22;6808;49.444;11.034;2022-10-04T16:58:53;14.40;99.90
13472;DHT22;6808;49.444;11.034;2022-10-04T17:07:19;14.20;99.70
13472;DHT22;6808;49.444;11.034;2022-10-04T17:10:03;14.20;99.80
13472;DHT22;6808;49.444;11.034;2022-10-04T17:12:50;14.10;99.70
13472;DHT22;6808;49.444;11.034;2022-10-04T17:26:00;13.90;99.80
13472;DHT22;6808;49.444;11.034;2022-10-04T17:36:59;13.60;99.90
13472;DHT22;6808;49.444;11.034;2022-10-04T17:47:44;13.50;99.90
13472;DHT22;6808;49.444;11.034;2022-10-04T17:51:02;13.50;99.90
13472;DHT22;6808;49.444;11.034;2022-10-04T17:53:48;13.40;99.90
13472;DHT22;6808;49.444;11.034;2022-10-04T17:56:41;13.40;99.90
13472;DHT22;6808;49.444;11.034;2022-10-04T17:59:11;13.40;99.90
13472;DHT22;6808;49.444;11.034;2022-10-04T18:01:49;13.40;99.90
13472;DHT22;6808;49.444;11.034;2022-10-04T18:04:20;13.30;99.90
13472;DHT22;6808;49.444;11.034;2022-10-04T18:07:07;13.20;99.90
13472;DHT22;6808;49.444;11.034;2022-10-04T18:09:41;13.20;99.90
13472;DHT22;6808;49.444;11.034;2022-10-04T18:12:45;13.20;99.90
13472;DHT22;6808;49.444;11.034;2022-10-04T18:15:35;13.10;99.90
13472;DHT22;6808;49.444;11.034;2022-10-04T18:18:17;13.10;99.90
13472;DHT22;6808;49.444;11.034;2022-10-04T18:21:00;13.00;99.90
13472;DHT22;6808;49.444;11.034;2022-10-04T18:23:32;12.90;99.90
13472;DHT22;6808;49.444;11.034;2022-10-04T18:26:15;12.70;99.90
13472;DHT22;6808;49.444;11.034;2022-10-04T18:28:45;12.60;99.90
13472;DHT22;6808;49.444;11.034;2022-10-04T18:37:04;12.50;99.90
13472;DHT22;6808;49.444;11.034;2022-10-04T18:39:31;12.50;99.90
13472;DHT22;6808;49.444;11.034;2022-10-04T18:42:26;12.50;99.90
13472;DHT22;6808;49.444;11.034;2022-10-04T18:45:00;12.50;99.90
13472;DHT22;6808;49.444;11.034;2022-10-04T18:47:39;12.50;99.90
13472;DHT22;6808;49.444;11.034;2022-10-04T18:50:32;12.50;99.90
13472;DHT22;6808;49.444;11.034;2022-10-04T18:56:05;12.40;99.90
13472;DHT22;6808;49.444;11.034;2022-10-04T18:58:47;12.30;99.90
13472;DHT22;6808;49.444;11.034;2022-10-04T19:01:58;12.60;99.90
13472;DHT22;6808;49.444;11.034;2022-10-04T19:13:00;12.00;99.90
13472;DHT22;6808;49.444;11.034;2022-10-04T19:18:02;11.90;99.90
13472;DHT22;6808;49.444;11.034;2022-10-04T19:20:42;11.90;99.90
13472;DHT22;6808;49.444;11.034;2022-10-04T19:23:27;11.80;99.90
13472;DHT22;6808;49.444;11.034;2022-10-04T19:28:31;11.80;99.90
13472;DHT22;6808;49.444;11.034;2022-10-04T19:33:44;11.70;99.90
13472;DHT22;6808;49.444;11.034;2022-10-04T19:39:00;11.70;99.90
13472;DHT22;6808;49.444;11.034;2022-10-04T19:42:01;11.70;99.90
13472;DHT22;6808;49.444;11.034;2022-10-04T19:47:48;11.60;99.90
13472;DHT22;6808;49.444;11.034;2022-10-04T19:52:49;11.60;99.90
13472;DHT22;6808;49.444;11.034;2022-10-04T19:55:29;11.60;99.90
13472;DHT22;6808;49.444;11.034;2022-10-04T19:58:20;11.60;99.90
13472;DHT22;6808;49.444;11.034;2022-10-04T20:00:48;11.50;99.90
13472;DHT22;6808;49.444;11.034;2022-10-04T20:03:14;11.50;99.90
13472;DHT22;6808;49.444;11.034;2022-10-04T20:05:50;11.50;99.90
13472;DHT22;6808;49.444;11.034;2022-10-04T20:08:48;11.40;99.90
13472;DHT22;6808;49.444;11.034;2022-10-04T20:11:18;11.40;99.90
13472;DHT22;6808;49.444;11.034;2022-10-04T20:13:44;11.30;99.90
13472;DHT22;6808;49.444;11.034;2022-10-04T20:16:10;11.30;99.90
13472;DHT22;6808;49.444;11.034;2022-10-04T20:21:09;11.30;99.90
13472;DHT22;6808;49.444;11.034;2022-10-04T20:26:34;11.30;99.90
13472;DHT22;6808;49.444;11.034;2022-10-04T20:32:51;11.20;99.90
13472;DHT22;6808;49.444;11.034;2022-10-04T20:35:00;11.20;99.90
13472;DHT22;6808;49.444;11.034;2022-10-04T20:45:46;11.10;99.90
13472;DHT22;6808;49.444;11.034;2022-10-04T20:48:21;11.10;99.90
13472;DHT22;6808;49.444;11.034;2022-10-04T20:50:48;11.10;99.90
13472;DHT22;6808;49.444;11.034;2022-10-04T20:53:21;11.10;99.90
13472;DHT22;6808;49.444;11.034;2022-10-04T20:55:48;11.10;99.90
13472;DHT22;6808;49.444;11.034;2022-10-04T20:58:29;11.00;99.90
13472;DHT22;6808;49.444;11.034;2022-10-04T21:00:58;11.00;99.90
13472;DHT22;6808;49.444;11.034;2022-10-04T21:03:27;11.00;99.90
13472;DHT22;6808;49.444;11.034;2022-10-04T21:06:02;11.00;99.90
13472;DHT22;6808;49.444;11.034;2022-10-04T21:08:28;11.00;99.90
13472;DHT22;6808;49.444;11.034;2022-10-04T21:11:21;10.90;99.90
13472;DHT22;6808;49.444;11.034;2022-10-04T21:13:59;10.90;99.90
13472;DHT22;6808;49.444;11.034;2022-10-04T21:26:55;10.70;99.90
13472;DHT22;6808;49.444;11.034;2022-10-04T21:29:21;10.60;99.90
13472;DHT22;6808;49.444;11.034;2022-10-04T21:31:47;10.50;99.90
13472;DHT22;6808;49.444;11.034;2022-10-04T21:34:12;10.60;99.90
13472;DHT22;6808;49.444;11.034;2022-10-04T21:36:38;10.50;99.90
13472;DHT22;6808;49.444;11.034;2022-10-04T21:39:03;10.50;99.90
13472;DHT22;6808;49.444;11.034;2022-10-04T21:41:29;10.50;99.90
13472;DHT22;6808;49.444;11.034;2022-10-04T21:43:54;10.50;99.90
13472;DHT22;6808;49.444;11.034;2022-10-04T21:46:20;10.50;99.90
13472;DHT22;6808;49.444;11.034;2022-10-04T21:48:45;10.50;99.90
13472;DHT22;6808;49.444;11.034;2022-10-04T21:51:11;10.50;99.90
13472;DHT22;6808;49.444;11.034;2022-10-04T21:53:37;10.40;99.90
13472;DHT22;6808;49.444;11.034;2022-10-04T21:56:02;10.40;99.90
13472;DHT22;6808;49.444;11.034;2022-10-04T21:58:28;10.30;99.90
13472;DHT22;6808;49.444;11.034;2022-10-04T22:00:54;10.30;99.90
13472;DHT22;6808;49.444;11.034;2022-10-04T22:03:19;10.30;99.90
13472;DHT22;6808;49.444;11.034;2022-10-04T22:05:45;10.30;99.90
13472;DHT22;6808;49.444;11.034;2022-10-04T22:08:10;10.20;99.90
13472;DHT22;6808;49.444;11.034;2022-10-04T22:10:36;10.20;99.90
13472;DHT22;6808;49.444;11.034;2022-10-04T22:13:01;10.10;99.90
13472;DHT22;6808;49.444;11.034;2022-10-04T22:15:27;10.10;99.90
13472;DHT22;6808;49.444;11.034;2022-10-04T22:17:54;10.10;99.90
13472;DHT22;6808;49.444;11.034;2022-10-04T22:20:20;10.10;99.90
13472;DHT22;6808;49.444;11.034;2022-10-04T22:22:46;10.10;99.90
13472;DHT22;6808;49.444;11.034;2022-10-04T22:25:18;10.10;99.90
13472;DHT22;6808;49.444;11.034;2022-10-04T22:27:44;10.00;99.90
13472;DHT22;6808;49.444;11.034;2022-10-04T22:32:43;10.00;99.90
13472;DHT22;6808;49.444;11.034;2022-10-04T22:35:13;10.00;99.90
13472;DHT22;6808;49.444;11.034;2022-10-04T22:37:40;9.90;99.90
13472;DHT22;6808;49.444;11.034;2022-10-04T22:40:12;9.80;99.90
13472;DHT22;6808;49.444;11.034;2022-10-04T22:42:38;9.80;99.90
13472;DHT22;6808;49.444;11.034;2022-10-04T22:45:10;9.80;99.90
13472;DHT22;6808;49.444;11.034;2022-10-04T22:47:39;9.80;99.90
13472;DHT22;6808;49.444;11.034;2022-10-04T22:50:20;9.80;99.90
13472;DHT22;6808;49.444;11.034;2022-10-04T22:52:48;9.80;99.90
13472;DHT22;6808;49.444;11.034;2022-10-04T22:55:16;9.70;99.90
13472;DHT22;6808;49.444;11.034;2022-10-04T22:57:42;9.70;99.90
13472;DHT22;6808;49.444;11.034;2022-10-04T23:00:09;9.60;99.90
13472;DHT22;6808;49.444;11.034;2022-10-04T23:02:36;9.60;99.90
13472;DHT22;6808;49.444;11.034;2022-10-04T23:05:16;9.60;99.90
13472;DHT22;6808;49.444;11.034;2022-10-04T23:07:42;9.60;99.90
13472;DHT22;6808;49.444;11.034;2022-10-04T23:10:09;9.60;99.90
13472;DHT22;6808;49.444;11.034;2022-10-04T23:12:36;9.50;99.90
13472;DHT22;6808;49.444;11.034;2022-10-04T23:15:02;9.50;99.90
13472;DHT22;6808;49.444;11.034;2022-10-04T23:17:34;9.50;99.90
13472;DHT22;6808;49.444;11.034;2022-10-04T23:20:16;9.50;99.90
13472;DHT22;6808;49.444;11.034;2022-10-04T23:22:44;9.50;99.90
13472;DHT22;6808;49.444;11.034;2022-10-04T23:25:26;9.50;99.90
13472;DHT22;6808;49.444;11.034;2022-10-04T23:27:53;9.50;99.90
13472;DHT22;6808;49.444;11.034;2022-10-04T23:30:20;9.50;99.90
13472;DHT22;6808;49.444;11.034;2022-10-04T23:32:51;9.50;99.90
13472;DHT22;6808;49.444;11.034;2022-10-04T23:35:20;9.50;99.90
13472;DHT22;6808;49.444;11.034;2022-10-04T23:37:47;9.50;99.90
13472;DHT22;6808;49.444;11.034;2022-10-04T23:40:19;9.40;99.90
13472;DHT22;6808;49.444;11.034;2022-10-04T23:42:53;9.30;99.90
13472;DHT22;6808;49.444;11.034;2022-10-04T23:45:22;9.20;99.90
13472;DHT22;6808;49.444;11.034;2022-10-04T23:47:51;9.20;99.90
13472;DHT22;6808;49.444;11.034;2022-10-04T23:50:21;9.20;99.90
13472;DHT22;6808;49.444;11.034;2022-10-04T23:52:49;9.10;99.90
13472;DHT22;6808;49.444;11.034;2022-10-04T23:55:31;9.10;99.90
13472;DHT22;6808;49.444;11.034;2022-10-04T23:57:58;9.10;99.90
